Check out our new PWSWeather beta!
PWSweather.com
Personal Weather Stations
Station Observations
GIRWX1
Presovsky Kraj, GiraltovceSK

Presovsky KrajGiraltovceSK

Lat: 49.118, Lon: 21.52

Elevation: 630

Station Type: wh1080

http://www.meteogiraltovce.wz.cz/

High Low Average
Temperature 48.6°F9.2°C 38.2°F3.4°C 43.7°F6.5°C
Dew Point 41.9°F5.5°C 32.9°F0.5°C 38.7°F3.7°C
Winds 13.2 mph 21.2 kmh Calm Calm 4.0 mph SSE6.4 kmh SSE
Wind Gusts 20.6 mph33.2 kmh -- 6.0 mph9.7 kmh
Humidity 91% 68% 83%
Pressure 30.10 in1019.3 mb 29.93 in1013.5 mb -
Precipitation 0.05 in1.3 mm - -
Hour Temp Dew Point Humidity Winds Wind Gusts Pressure Precip Precip Rate Daily Precip Total
12:00 AM 44.1°F6.7°C 41.3°F5.2°C 90% 0.5 mph WSW0.8 kmh WSW 1.6 mph2.6 kmh 29.93 in1013.5 mb 0.01 in0.3 mm 0.00 in0.0 mm 0.01 in0.3 mm
12:05 AM 44.1°F6.7°C 41.3°F5.2°C 90% Calm Calm 0.7 mph1.1 kmh 29.93 in1013.5 mb 0.01 in0.3 mm 0.00 in0.0 mm 0.01 in0.3 mm
12:10 AM 44.1°F6.7°C 41.3°F5.2°C 90% Calm Calm 0.7 mph1.1 kmh 29.93 in1013.5 mb 0.01 in0.3 mm 0.00 in0.0 mm 0.01 in0.3 mm
12:15 AM 44.1°F6.7°C 41.3°F5.2°C 90% 0.3 mph SW0.5 kmh SW 1.6 mph2.6 kmh 29.93 in1013.5 mb 0.01 in0.3 mm 0.00 in0.0 mm 0.01 in0.3 mm
12:20 AM 44.1°F6.7°C 41.3°F5.2°C 90% 1.4 mph SW2.3 kmh SW 2.2 mph3.5 kmh 29.94 in1013.9 mb 0.01 in0.3 mm 0.00 in0.0 mm 0.01 in0.3 mm
12:25 AM 44.1°F6.7°C 41.3°F5.2°C 90% 0.8 mph SW1.3 kmh SW 2.2 mph3.5 kmh 29.93 in1013.5 mb 0.01 in0.3 mm 0.00 in0.0 mm 0.01 in0.3 mm
12:30 AM 44.1°F6.7°C 41.3°F5.2°C 90% Calm Calm 0.7 mph1.1 kmh 29.94 in1013.9 mb 0.01 in0.3 mm 0.00 in0.0 mm 0.01 in0.3 mm
12:35 AM 44.1°F6.7°C 41.3°F5.2°C 90% 0.4 mph WNW0.6 kmh WNW 1.6 mph2.6 kmh 29.94 in1013.9 mb 0.01 in0.3 mm 0.00 in0.0 mm 0.01 in0.3 mm
12:40 AM 44.0°F6.7°C 41.2°F5.1°C 90% 0.8 mph NW1.3 kmh NW 3.1 mph5.0 kmh 29.94 in1013.9 mb 0.01 in0.3 mm 0.00 in0.0 mm 0.01 in0.3 mm
12:45 AM 43.9°F6.6°C 41.1°F5.1°C 90% 2.3 mph NW3.7 kmh NW 5.4 mph8.7 kmh 29.94 in1013.9 mb 0.01 in0.3 mm 0.00 in0.0 mm 0.01 in0.3 mm
12:50 AM 43.9°F6.6°C 41.1°F5.1°C 90% 1.2 mph NW1.9 kmh NW 2.2 mph3.5 kmh 29.94 in1013.9 mb 0.01 in0.3 mm 0.00 in0.0 mm 0.01 in0.3 mm
12:55 AM 43.9°F6.6°C 41.1°F5.1°C 90% 0.6 mph NNW1.0 kmh NNW 1.6 mph2.6 kmh 29.94 in1013.9 mb 0.01 in0.3 mm 0.00 in0.0 mm 0.01 in0.3 mm
01:00 AM 43.8°F6.6°C 41.0°F5.0°C 90% 1.6 mph NW2.6 kmh NW 3.8 mph6.1 kmh 29.94 in1013.9 mb 0.01 in0.3 mm 0.00 in0.0 mm 0.01 in0.3 mm
01:05 AM 43.7°F6.5°C 41.0°F5.0°C 90% 1.1 mph WNW1.8 kmh WNW 2.2 mph3.5 kmh 29.94 in1013.9 mb 0.01 in0.3 mm 0.00 in0.0 mm 0.01 in0.3 mm
01:10 AM 43.7°F6.5°C 41.0°F5.0°C 90% 1.3 mph NNW2.1 kmh NNW 3.1 mph5.0 kmh 29.94 in1013.9 mb 0.01 in0.3 mm 0.00 in0.0 mm 0.02 in0.5 mm
01:15 AM 43.7°F6.5°C 41.0°F5.0°C 90% 1.1 mph NNW1.8 kmh NNW 2.2 mph3.5 kmh 29.95 in1014.2 mb 0.01 in0.3 mm 0.00 in0.0 mm 0.02 in0.5 mm
01:20 AM 43.7°F6.5°C 41.0°F5.0°C 90% 0.3 mph NW0.5 kmh NW 1.6 mph2.6 kmh 29.95 in1014.2 mb 0.02 in0.5 mm 0.12 in3.0 mm 0.02 in0.5 mm
01:25 AM 43.7°F6.5°C 41.0°F5.0°C 90% 0.2 mph E0.3 kmh E 1.6 mph2.6 kmh 29.95 in1014.2 mb 0.02 in0.5 mm 0.00 in0.0 mm 0.02 in0.5 mm
01:30 AM 43.7°F6.5°C 41.0°F5.0°C 90% 0.3 mph NE0.5 kmh NE 1.6 mph2.6 kmh 29.95 in1014.2 mb 0.02 in0.5 mm 0.00 in0.0 mm 0.02 in0.5 mm
01:35 AM 43.7°F6.5°C 41.0°F5.0°C 90% Calm Calm -- 29.95 in1014.2 mb 0.02 in0.5 mm 0.00 in0.0 mm 0.03 in0.8 mm
01:40 AM 43.7°F6.5°C 41.0°F5.0°C 90% Calm Calm -- 29.95 in1014.2 mb 0.02 in0.5 mm 0.00 in0.0 mm 0.03 in0.8 mm
01:45 AM 43.7°F6.5°C 41.0°F5.0°C 90% 0.1 mph NW0.2 kmh NW 0.7 mph1.1 kmh 29.96 in1014.6 mb 0.02 in0.5 mm 0.00 in0.0 mm 0.03 in0.8 mm
01:50 AM 43.7°F6.5°C 41.0°F5.0°C 90% 0.4 mph SE0.6 kmh SE 1.6 mph2.6 kmh 29.96 in1014.6 mb 0.02 in0.5 mm 0.00 in0.0 mm 0.03 in0.8 mm
01:55 AM 43.5°F6.4°C 40.8°F4.9°C 90% 1.9 mph NW3.1 kmh NW 3.8 mph6.1 kmh 29.96 in1014.6 mb 0.02 in0.5 mm 0.00 in0.0 mm 0.03 in0.8 mm
02:00 AM 43.5°F6.4°C 40.8°F4.9°C 90% 1.2 mph NE1.9 kmh NE 2.2 mph3.5 kmh 29.96 in1014.6 mb 0.02 in0.5 mm 0.00 in0.0 mm 0.03 in0.8 mm
02:05 AM 43.5°F6.4°C 40.8°F4.9°C 90% 1.6 mph NNE2.6 kmh NNE 2.2 mph3.5 kmh 29.96 in1014.6 mb 0.02 in0.5 mm 0.00 in0.0 mm 0.03 in0.8 mm
02:10 AM 43.5°F6.4°C 40.8°F4.9°C 90% 3.2 mph N5.1 kmh N 6.0 mph9.7 kmh 29.96 in1014.6 mb 0.01 in0.3 mm 0.00 in0.0 mm 0.03 in0.8 mm
02:15 AM 43.3°F6.3°C 40.6°F4.8°C 90% 4.3 mph NNW6.9 kmh NNW 6.0 mph9.7 kmh 29.97 in1014.9 mb 0.02 in0.5 mm 0.12 in3.0 mm 0.04 in1.0 mm
02:20 AM 43.2°F6.2°C 40.5°F4.7°C 90% 4.4 mph N7.1 kmh N 6.9 mph11.1 kmh 29.97 in1014.9 mb 0.01 in0.3 mm 0.00 in0.0 mm 0.04 in1.0 mm
02:25 AM 43.1°F6.2°C 40.4°F4.7°C 90% 3.4 mph NNW5.5 kmh NNW 5.4 mph8.7 kmh 29.98 in1015.2 mb 0.01 in0.3 mm 0.00 in0.0 mm 0.04 in1.0 mm
02:30 AM 42.9°F6.1°C 40.2°F4.6°C 90% 3.1 mph NW5.0 kmh NW 5.4 mph8.7 kmh 29.98 in1015.2 mb 0.01 in0.3 mm 0.00 in0.0 mm 0.04 in1.0 mm
02:35 AM 42.8°F6.0°C 40.1°F4.5°C 90% 3.1 mph NW5.0 kmh NW 6.0 mph9.7 kmh 29.98 in1015.2 mb 0.01 in0.3 mm 0.00 in0.0 mm 0.04 in1.0 mm
02:40 AM 42.6°F5.9°C 39.9°F4.4°C 90% 2.9 mph NW4.7 kmh NW 4.5 mph7.2 kmh 29.98 in1015.2 mb 0.01 in0.3 mm 0.00 in0.0 mm 0.04 in1.0 mm
02:45 AM 42.6°F5.9°C 39.9°F4.4°C 90% 1.7 mph NW2.7 kmh NW 3.1 mph5.0 kmh 29.99 in1015.6 mb 0.01 in0.3 mm 0.00 in0.0 mm 0.04 in1.0 mm
02:50 AM 42.4°F5.8°C 39.7°F4.3°C 90% 1.0 mph ENE1.6 kmh ENE 3.8 mph6.1 kmh 29.99 in1015.6 mb 0.01 in0.3 mm 0.00 in0.0 mm 0.04 in1.0 mm
02:55 AM 42.4°F5.8°C 39.7°F4.3°C 90% 2.3 mph N3.7 kmh N 3.8 mph6.1 kmh 29.99 in1015.6 mb 0.01 in0.3 mm 0.00 in0.0 mm 0.04 in1.0 mm
03:00 AM 42.3°F5.7°C 39.5°F4.2°C 90% 1.8 mph N2.9 kmh N 3.1 mph5.0 kmh 29.99 in1015.6 mb 0.01 in0.3 mm 0.00 in0.0 mm 0.04 in1.0 mm
03:05 AM 42.3°F5.7°C 39.5°F4.2°C 90% 1.4 mph NNE2.3 kmh NNE 2.2 mph3.5 kmh 30.00 in1015.9 mb 0.01 in0.3 mm 0.00 in0.0 mm 0.04 in1.0 mm
03:10 AM 42.2°F5.7°C 39.5°F4.2°C 90% 0.9 mph N1.4 kmh N 2.2 mph3.5 kmh 30.00 in1015.9 mb 0.01 in0.3 mm 0.00 in0.0 mm 0.04 in1.0 mm
03:15 AM 42.1°F5.6°C 39.4°F4.1°C 90% 1.6 mph NE2.6 kmh NE 2.2 mph3.5 kmh 30.00 in1015.9 mb 0.01 in0.3 mm 0.00 in0.0 mm 0.04 in1.0 mm
03:20 AM 42.1°F5.6°C 39.4°F4.1°C 90% 1.5 mph NE2.4 kmh NE 2.2 mph3.5 kmh 30.00 in1015.9 mb 0.01 in0.3 mm 0.00 in0.0 mm 0.04 in1.0 mm
03:25 AM 42.1°F5.6°C 39.4°F4.1°C 90% 1.2 mph NE1.9 kmh NE 2.2 mph3.5 kmh 30.00 in1015.9 mb 0.01 in0.3 mm 0.00 in0.0 mm 0.05 in1.3 mm
03:30 AM 42.1°F5.6°C 39.4°F4.1°C 90% 1.3 mph NE2.1 kmh NE 2.2 mph3.5 kmh 30.00 in1015.9 mb 0.01 in0.3 mm 0.00 in0.0 mm 0.05 in1.3 mm
03:35 AM 42.0°F5.6°C 39.3°F4.1°C 90% 0.8 mph NNE1.3 kmh NNE 2.2 mph3.5 kmh 30.00 in1015.9 mb 0.01 in0.3 mm 0.00 in0.0 mm 0.05 in1.3 mm
03:40 AM 41.9°F5.5°C 39.2°F4.0°C 90% 1.3 mph NE2.1 kmh NE 3.1 mph5.0 kmh 30.00 in1015.9 mb 0.01 in0.3 mm 0.00 in0.0 mm 0.05 in1.3 mm
03:45 AM 41.9°F5.5°C 39.2°F4.0°C 90% 1.4 mph NE2.3 kmh NE 3.1 mph5.0 kmh 30.00 in1015.9 mb 0.01 in0.3 mm 0.00 in0.0 mm 0.05 in1.3 mm
03:50 AM 41.9°F5.5°C 39.2°F4.0°C 90% 0.3 mph N0.5 kmh N 1.6 mph2.6 kmh 30.00 in1015.9 mb 0.01 in0.3 mm 0.00 in0.0 mm 0.05 in1.3 mm
03:55 AM 41.9°F5.5°C 39.2°F4.0°C 90% 1.0 mph N1.6 kmh N 3.1 mph5.0 kmh 30.00 in1015.9 mb 0.01 in0.3 mm 0.00 in0.0 mm 0.05 in1.3 mm
04:00 AM 41.7°F5.4°C 39.0°F3.9°C 90% 1.3 mph NNE2.1 kmh NNE 3.1 mph5.0 kmh 30.00 in1015.9 mb 0.01 in0.3 mm 0.00 in0.0 mm 0.05 in1.3 mm
04:05 AM 41.7°F5.4°C 39.0°F3.9°C 90% 2.2 mph NE3.5 kmh NE 3.1 mph5.0 kmh 30.00 in1015.9 mb 0.01 in0.3 mm 0.00 in0.0 mm 0.05 in1.3 mm
04:10 AM 41.6°F5.3°C 38.7°F3.7°C 89% 0.6 mph NE1.0 kmh NE 3.1 mph5.0 kmh 30.01 in1016.3 mb 0.01 in0.3 mm 0.00 in0.0 mm 0.05 in1.3 mm
04:15 AM 41.5°F5.3°C 38.5°F3.6°C 89% Calm Calm -- 30.01 in1016.3 mb 0.01 in0.3 mm 0.00 in0.0 mm 0.05 in1.3 mm
04:20 AM 41.5°F5.3°C 38.5°F3.6°C 89% Calm Calm -- 30.01 in1016.3 mb 0.01 in0.3 mm 0.00 in0.0 mm 0.05 in1.3 mm
04:25 AM 41.5°F5.3°C 38.5°F3.6°C 89% Calm Calm -- 30.01 in1016.3 mb 0.00 in0.0 mm 0.00 in0.0 mm 0.05 in1.3 mm
04:30 AM 41.4°F5.2°C 38.4°F3.6°C 89% Calm Calm -- 30.01 in1016.3 mb 0.00 in0.0 mm 0.00 in0.0 mm 0.05 in1.3 mm
04:35 AM 41.4°F5.2°C 38.4°F3.6°C 89% 1.0 mph NE1.6 kmh NE 2.2 mph3.5 kmh 30.01 in1016.3 mb 0.00 in0.0 mm 0.00 in0.0 mm 0.05 in1.3 mm
04:40 AM 41.4°F5.2°C 38.4°F3.6°C 89% 0.7 mph NE1.1 kmh NE 2.2 mph3.5 kmh 30.01 in1016.3 mb 0.00 in0.0 mm 0.00 in0.0 mm 0.05 in1.3 mm
04:45 AM 41.4°F5.2°C 38.4°F3.6°C 89% 0.1 mph 0.2 kmh 1.6 mph2.6 kmh 30.02 in1016.6 mb 0.00 in0.0 mm 0.00 in0.0 mm 0.05 in1.3 mm
04:50 AM 41.4°F5.2°C 38.4°F3.6°C 89% 0.2 mph W0.3 kmh W 1.6 mph2.6 kmh 30.02 in1016.6 mb 0.00 in0.0 mm 0.00 in0.0 mm 0.05 in1.3 mm
04:55 AM 41.4°F5.2°C 38.4°F3.6°C 89% 0.6 mph W1.0 kmh W 1.6 mph2.6 kmh 30.02 in1016.6 mb 0.00 in0.0 mm 0.00 in0.0 mm 0.05 in1.3 mm
05:00 AM 41.4°F5.2°C 38.4°F3.6°C 89% Calm Calm 0.7 mph1.1 kmh 30.02 in1016.6 mb 0.00 in0.0 mm 0.00 in0.0 mm 0.05 in1.3 mm
05:05 AM 41.4°F5.2°C 38.4°F3.6°C 89% Calm Calm -- 30.02 in1016.6 mb 0.00 in0.0 mm 0.00 in0.0 mm 0.05 in1.3 mm
05:10 AM 41.4°F5.2°C 38.4°F3.6°C 89% Calm Calm -- 30.02 in1016.6 mb 0.00 in0.0 mm 0.00 in0.0 mm 0.05 in1.3 mm
05:15 AM 41.4°F5.2°C 38.4°F3.6°C 89% Calm Calm -- 30.03 in1016.9 mb 0.00 in0.0 mm 0.00 in0.0 mm 0.05 in1.3 mm
05:20 AM 41.4°F5.2°C 38.4°F3.6°C 89% Calm Calm -- 30.03 in1016.9 mb 0.00 in0.0 mm 0.00 in0.0 mm 0.05 in1.3 mm
05:25 AM 41.4°F5.2°C 38.4°F3.6°C 89% 0.2 mph SSW0.3 kmh SSW 1.6 mph2.6 kmh 30.03 in1016.9 mb 0.00 in0.0 mm 0.00 in0.0 mm 0.05 in1.3 mm
05:30 AM 41.4°F5.2°C 38.7°F3.7°C 90% Calm Calm 0.7 mph1.1 kmh 30.03 in1016.9 mb 0.00 in0.0 mm 0.00 in0.0 mm 0.05 in1.3 mm
05:35 AM 41.4°F5.2°C 38.7°F3.7°C 90% Calm Calm -- 30.04 in1017.3 mb 0.00 in0.0 mm 0.00 in0.0 mm 0.05 in1.3 mm
05:40 AM 41.5°F5.3°C 38.8°F3.8°C 90% Calm Calm 0.7 mph1.1 kmh 30.04 in1017.3 mb 0.00 in0.0 mm 0.00 in0.0 mm 0.05 in1.3 mm
05:45 AM 41.5°F5.3°C 38.8°F3.8°C 90% Calm Calm -- 30.04 in1017.3 mb 0.00 in0.0 mm 0.00 in0.0 mm 0.05 in1.3 mm
05:50 AM 41.5°F5.3°C 38.8°F3.8°C 90% Calm Calm -- 30.04 in1017.3 mb 0.00 in0.0 mm 0.00 in0.0 mm 0.05 in1.3 mm
05:55 AM 41.5°F5.3°C 38.8°F3.8°C 90% 0.5 mph 0.8 kmh 1.6 mph2.6 kmh 30.04 in1017.3 mb 0.00 in0.0 mm 0.00 in0.0 mm 0.05 in1.3 mm
06:00 AM 41.5°F5.3°C 38.8°F3.8°C 90% Calm Calm -- 30.04 in1017.3 mb 0.00 in0.0 mm 0.00 in0.0 mm 0.05 in1.3 mm
06:05 AM 41.5°F5.3°C 38.8°F3.8°C 90% Calm Calm -- 30.04 in1017.3 mb 0.00 in0.0 mm 0.00 in0.0 mm 0.05 in1.3 mm
06:10 AM 41.6°F5.3°C 38.9°F3.8°C 90% 0.5 mph 0.8 kmh 1.6 mph2.6 kmh 30.05 in1017.6 mb 0.00 in0.0 mm 0.00 in0.0 mm 0.05 in1.3 mm
06:15 AM 41.7°F5.4°C 39.0°F3.9°C 90% 0.5 mph 0.8 kmh 1.6 mph2.6 kmh 30.04 in1017.3 mb 0.00 in0.0 mm 0.00 in0.0 mm 0.05 in1.3 mm
06:20 AM 41.7°F5.4°C 39.0°F3.9°C 90% 0.4 mph 0.6 kmh 0.7 mph1.1 kmh 30.05 in1017.6 mb 0.00 in0.0 mm 0.00 in0.0 mm 0.05 in1.3 mm
06:25 AM 41.7°F5.4°C 39.0°F3.9°C 90% Calm Calm 0.7 mph1.1 kmh 30.05 in1017.6 mb 0.00 in0.0 mm 0.00 in0.0 mm 0.05 in1.3 mm
06:30 AM 41.7°F5.4°C 39.0°F3.9°C 90% Calm Calm 0.7 mph1.1 kmh 30.05 in1017.6 mb 0.00 in0.0 mm 0.00 in0.0 mm 0.05 in1.3 mm
06:35 AM 41.6°F5.3°C 38.9°F3.8°C 90% Calm Calm 0.7 mph1.1 kmh 30.06 in1017.9 mb 0.00 in0.0 mm 0.00 in0.0 mm 0.05 in1.3 mm
06:40 AM 41.5°F5.3°C 38.8°F3.8°C 90% 0.3 mph 0.5 kmh 1.6 mph2.6 kmh 30.06 in1017.9 mb 0.00 in0.0 mm 0.00 in0.0 mm 0.05 in1.3 mm
06:45 AM 41.5°F5.3°C 38.8°F3.8°C 90% 0.4 mph NE0.6 kmh NE 1.6 mph2.6 kmh 30.06 in1017.9 mb 0.00 in0.0 mm 0.00 in0.0 mm 0.05 in1.3 mm
06:50 AM 41.5°F5.3°C 38.8°F3.8°C 90% 0.6 mph NNE1.0 kmh NNE 1.6 mph2.6 kmh 30.06 in1017.9 mb 0.00 in0.0 mm 0.00 in0.0 mm 0.05 in1.3 mm
06:55 AM 41.6°F5.3°C 38.9°F3.8°C 90% 0.9 mph 1.4 kmh 1.6 mph2.6 kmh 30.06 in1017.9 mb 0.00 in0.0 mm 0.00 in0.0 mm 0.05 in1.3 mm
07:00 AM 41.7°F5.4°C 39.0°F3.9°C 90% 0.9 mph 1.4 kmh 2.2 mph3.5 kmh 30.06 in1017.9 mb 0.00 in0.0 mm 0.00 in0.0 mm 0.05 in1.3 mm
07:05 AM 41.7°F5.4°C 39.0°F3.9°C 90% 0.6 mph N1.0 kmh N 1.6 mph2.6 kmh 30.07 in1018.3 mb 0.00 in0.0 mm 0.00 in0.0 mm 0.05 in1.3 mm
07:10 AM 41.7°F5.4°C 39.0°F3.9°C 90% 0.5 mph NW0.8 kmh NW 1.6 mph2.6 kmh 30.07 in1018.3 mb 0.00 in0.0 mm 0.00 in0.0 mm 0.05 in1.3 mm
07:15 AM 41.7°F5.4°C 39.0°F3.9°C 90% Calm Calm 0.7 mph1.1 kmh 30.07 in1018.3 mb 0.00 in0.0 mm 0.00 in0.0 mm 0.05 in1.3 mm
07:20 AM 41.7°F5.4°C 39.0°F3.9°C 90% Calm Calm 0.7 mph1.1 kmh 30.06 in1017.9 mb 0.00 in0.0 mm 0.00 in0.0 mm 0.05 in1.3 mm
07:25 AM 41.7°F5.4°C 39.0°F3.9°C 90% 0.5 mph ENE0.8 kmh ENE 1.6 mph2.6 kmh 30.06 in1017.9 mb 0.00 in0.0 mm 0.00 in0.0 mm 0.05 in1.3 mm
07:30 AM 41.7°F5.4°C 39.0°F3.9°C 90% 0.7 mph NNE1.1 kmh NNE 1.6 mph2.6 kmh 30.06 in1017.9 mb 0.00 in0.0 mm 0.00 in0.0 mm 0.05 in1.3 mm
07:35 AM 41.9°F5.5°C 39.2°F4.0°C 90% 0.7 mph 1.1 kmh 1.6 mph2.6 kmh 30.06 in1017.9 mb 0.00 in0.0 mm 0.00 in0.0 mm 0.05 in1.3 mm
07:40 AM 41.9°F5.5°C 39.2°F4.0°C 90% 0.7 mph 1.1 kmh 1.6 mph2.6 kmh 30.06 in1017.9 mb 0.00 in0.0 mm 0.00 in0.0 mm 0.05 in1.3 mm
07:45 AM 42.0°F5.6°C 39.3°F4.1°C 90% 0.9 mph NE1.4 kmh NE 2.2 mph3.5 kmh 30.06 in1017.9 mb 0.00 in0.0 mm 0.00 in0.0 mm 0.05 in1.3 mm
07:50 AM 42.1°F5.6°C 39.4°F4.1°C 90% 1.2 mph NE1.9 kmh NE 2.2 mph3.5 kmh 30.07 in1018.3 mb 0.00 in0.0 mm 0.00 in0.0 mm 0.05 in1.3 mm
07:55 AM 42.3°F5.7°C 39.5°F4.2°C 90% 0.7 mph 1.1 kmh 1.6 mph2.6 kmh 30.07 in1018.3 mb 0.00 in0.0 mm 0.00 in0.0 mm 0.05 in1.3 mm
08:00 AM 42.3°F5.7°C 39.6°F4.2°C 90% 0.2 mph 0.3 kmh 0.7 mph1.1 kmh 30.07 in1018.3 mb 0.00 in0.0 mm 0.00 in0.0 mm 0.05 in1.3 mm
08:05 AM 42.4°F5.8°C 39.7°F4.3°C 90% Calm Calm 0.7 mph1.1 kmh 30.07 in1018.3 mb 0.00 in0.0 mm 0.00 in0.0 mm 0.05 in1.3 mm
08:10 AM 42.4°F5.8°C 39.7°F4.3°C 90% 0.3 mph 0.5 kmh 1.6 mph2.6 kmh 30.07 in1018.3 mb 0.00 in0.0 mm 0.00 in0.0 mm 0.05 in1.3 mm
08:15 AM 42.4°F5.8°C 39.7°F4.3°C 90% 0.1 mph 0.2 kmh 0.7 mph1.1 kmh 30.07 in1018.3 mb 0.00 in0.0 mm 0.00 in0.0 mm 0.05 in1.3 mm
08:20 AM 42.4°F5.8°C 39.7°F4.3°C 90% Calm Calm -- 30.08 in1018.6 mb 0.00 in0.0 mm 0.00 in0.0 mm 0.05 in1.3 mm
08:25 AM 42.5°F5.8°C 39.8°F4.3°C 90% Calm Calm 0.7 mph1.1 kmh 30.08 in1018.6 mb 0.00 in0.0 mm 0.00 in0.0 mm 0.05 in1.3 mm
08:30 AM 42.6°F5.9°C 39.9°F4.4°C 90% Calm Calm 0.7 mph1.1 kmh 30.08 in1018.6 mb 0.00 in0.0 mm 0.00 in0.0 mm 0.05 in1.3 mm
08:35 AM 42.6°F5.9°C 39.9°F4.4°C 90% 0.1 mph SW0.2 kmh SW 1.6 mph2.6 kmh 30.08 in1018.6 mb 0.00 in0.0 mm 0.00 in0.0 mm 0.05 in1.3 mm
08:40 AM 42.8°F6.0°C 40.1°F4.5°C 90% Calm Calm 0.7 mph1.1 kmh 30.08 in1018.6 mb 0.00 in0.0 mm 0.00 in0.0 mm 0.05 in1.3 mm
08:45 AM 42.8°F6.0°C 40.1°F4.5°C 90% 0.1 mph SW0.2 kmh SW 1.6 mph2.6 kmh 30.08 in1018.6 mb 0.00 in0.0 mm 0.00 in0.0 mm 0.05 in1.3 mm
08:50 AM 43.0°F6.1°C 40.3°F4.6°C 90% Calm Calm 0.7 mph1.1 kmh 30.08 in1018.6 mb 0.00 in0.0 mm 0.00 in0.0 mm 0.05 in1.3 mm
08:55 AM 43.1°F6.2°C 40.4°F4.7°C 90% 0.5 mph N0.8 kmh N 1.6 mph2.6 kmh 30.08 in1018.6 mb 0.00 in0.0 mm 0.00 in0.0 mm 0.05 in1.3 mm
09:00 AM 43.2°F6.2°C 40.4°F4.7°C 90% 0.6 mph WSW1.0 kmh WSW 1.6 mph2.6 kmh 30.09 in1019.0 mb 0.00 in0.0 mm 0.00 in0.0 mm 0.05 in1.3 mm
09:05 AM 43.2°F6.2°C 40.4°F4.7°C 90% 0.2 mph SW0.3 kmh SW 1.6 mph2.6 kmh 30.09 in1019.0 mb 0.00 in0.0 mm 0.00 in0.0 mm 0.05 in1.3 mm
09:10 AM 43.2°F6.2°C 40.4°F4.7°C 90% 0.3 mph S0.5 kmh S 1.6 mph2.6 kmh 30.09 in1019.0 mb 0.00 in0.0 mm 0.00 in0.0 mm 0.05 in1.3 mm
09:15 AM 43.3°F6.3°C 40.5°F4.7°C 90% 1.0 mph NW1.6 kmh NW 3.1 mph5.0 kmh 30.09 in1019.0 mb 0.00 in0.0 mm 0.00 in0.0 mm 0.05 in1.3 mm
09:20 AM 43.4°F6.3°C 40.7°F4.8°C 90% 1.4 mph NW2.3 kmh NW 3.1 mph5.0 kmh 30.09 in1019.0 mb 0.00 in0.0 mm 0.00 in0.0 mm 0.05 in1.3 mm
09:25 AM 43.5°F6.4°C 40.9°F4.9°C 91% 0.5 mph W0.8 kmh W 1.6 mph2.6 kmh 30.09 in1019.0 mb 0.00 in0.0 mm 0.00 in0.0 mm 0.05 in1.3 mm
09:30 AM 43.7°F6.5°C 41.2°F5.1°C 91% Calm Calm -- 30.09 in1019.0 mb 0.00 in0.0 mm 0.00 in0.0 mm 0.05 in1.3 mm
09:35 AM 43.8°F6.6°C 41.3°F5.2°C 91% 1.2 mph W1.9 kmh W 3.1 mph5.0 kmh 30.09 in1019.0 mb 0.00 in0.0 mm 0.00 in0.0 mm 0.05 in1.3 mm
09:40 AM 44.0°F6.7°C 41.5°F5.3°C 91% 1.6 mph W2.6 kmh W 3.1 mph5.0 kmh 30.09 in1019.0 mb 0.00 in0.0 mm 0.00 in0.0 mm 0.05 in1.3 mm
09:45 AM 44.1°F6.7°C 41.6°F5.3°C 91% 2.6 mph WNW4.2 kmh WNW 3.8 mph6.1 kmh 30.10 in1019.3 mb 0.00 in0.0 mm 0.00 in0.0 mm 0.05 in1.3 mm
09:50 AM 44.2°F6.8°C 41.7°F5.4°C 91% 1.8 mph WNW2.9 kmh WNW 3.1 mph5.0 kmh 30.10 in1019.3 mb 0.00 in0.0 mm 0.00 in0.0 mm 0.05 in1.3 mm
09:55 AM 44.2°F6.8°C 41.5°F5.3°C 90% 0.9 mph SW1.4 kmh SW 2.2 mph3.5 kmh 30.10 in1019.3 mb 0.00 in0.0 mm 0.00 in0.0 mm 0.05 in1.3 mm
10:00 AM 44.2°F6.8°C 41.5°F5.3°C 90% 0.9 mph SSW1.4 kmh SSW 2.2 mph3.5 kmh 30.10 in1019.3 mb 0.00 in0.0 mm 0.00 in0.0 mm 0.05 in1.3 mm
10:05 AM 44.4°F6.9°C 41.7°F5.4°C 90% 1.6 mph SW2.6 kmh SW 2.2 mph3.5 kmh 30.10 in1019.3 mb 0.00 in0.0 mm 0.00 in0.0 mm 0.05 in1.3 mm
10:10 AM 44.5°F6.9°C 41.8°F5.4°C 90% 1.7 mph WSW2.7 kmh WSW 3.1 mph5.0 kmh 30.10 in1019.3 mb 0.00 in0.0 mm 0.00 in0.0 mm 0.05 in1.3 mm
10:15 AM 44.6°F7.0°C 41.9°F5.5°C 90% 1.0 mph WSW1.6 kmh WSW 3.1 mph5.0 kmh 30.10 in1019.3 mb 0.00 in0.0 mm 0.00 in0.0 mm 0.05 in1.3 mm
10:20 AM 44.6°F7.0°C 41.7°F5.4°C 90% 1.1 mph SW1.8 kmh SW 3.1 mph5.0 kmh 30.10 in1019.3 mb 0.00 in0.0 mm 0.00 in0.0 mm 0.05 in1.3 mm
10:25 AM 44.6°F7.0°C 41.5°F5.3°C 89% 1.2 mph SW1.9 kmh SW 3.1 mph5.0 kmh 30.10 in1019.3 mb 0.00 in0.0 mm 0.00 in0.0 mm 0.05 in1.3 mm
10:30 AM 44.6°F7.0°C 41.2°F5.1°C 88% 1.2 mph SW1.9 kmh SW 3.1 mph5.0 kmh 30.10 in1019.3 mb 0.00 in0.0 mm 0.00 in0.0 mm 0.05 in1.3 mm
10:35 AM 44.7°F7.1°C 41.0°F5.0°C 87% 0.8 mph S1.3 kmh S 2.2 mph3.5 kmh 30.10 in1019.3 mb 0.00 in0.0 mm 0.00 in0.0 mm 0.05 in1.3 mm
10:40 AM 44.8°F7.1°C 40.9°F4.9°C 86% 0.7 mph ESE1.1 kmh ESE 1.6 mph2.6 kmh 30.09 in1019.0 mb 0.00 in0.0 mm 0.00 in0.0 mm 0.05 in1.3 mm
10:45 AM 45.0°F7.2°C 41.1°F5.1°C 86% 1.9 mph NE3.1 kmh NE 3.1 mph5.0 kmh 30.09 in1019.0 mb 0.00 in0.0 mm 0.00 in0.0 mm 0.05 in1.3 mm
10:50 AM 45.3°F7.4°C 41.4°F5.2°C 86% 1.4 mph NNE2.3 kmh NNE 3.1 mph5.0 kmh 30.09 in1019.0 mb 0.00 in0.0 mm 0.00 in0.0 mm 0.05 in1.3 mm
10:55 AM 45.7°F7.6°C 41.5°F5.3°C 85% 0.5 mph NNE0.8 kmh NNE 1.6 mph2.6 kmh 30.09 in1019.0 mb 0.00 in0.0 mm 0.00 in0.0 mm 0.05 in1.3 mm
11:00 AM 45.9°F7.7°C 40.3°F4.6°C 81% 0.5 mph ENE0.8 kmh ENE 2.2 mph3.5 kmh 30.09 in1019.0 mb 0.00 in0.0 mm 0.00 in0.0 mm 0.05 in1.3 mm
11:05 AM 46.1°F7.8°C 40.3°F4.6°C 80% 1.0 mph SE1.6 kmh SE 3.1 mph5.0 kmh 30.09 in1019.0 mb 0.00 in0.0 mm 0.00 in0.0 mm 0.05 in1.3 mm
11:10 AM 46.3°F7.9°C 40.4°F4.7°C 80% 1.6 mph S2.6 kmh S 3.8 mph6.1 kmh 30.09 in1019.0 mb 0.00 in0.0 mm 0.00 in0.0 mm 0.05 in1.3 mm
11:15 AM 46.4°F8.0°C 40.1°F4.5°C 79% 1.9 mph SSE3.1 kmh SSE 3.1 mph5.0 kmh 30.08 in1018.6 mb 0.00 in0.0 mm 0.00 in0.0 mm 0.05 in1.3 mm
11:20 AM 46.4°F8.0°C 39.7°F4.3°C 77% 0.4 mph SW0.6 kmh SW 1.6 mph2.6 kmh 30.08 in1018.6 mb 0.00 in0.0 mm 0.00 in0.0 mm 0.05 in1.3 mm
11:25 AM 46.4°F8.0°C 39.5°F4.2°C 77% 1.1 mph ESE1.8 kmh ESE 2.2 mph3.5 kmh 30.08 in1018.6 mb 0.00 in0.0 mm 0.00 in0.0 mm 0.05 in1.3 mm
11:30 AM 46.6°F8.1°C 39.3°F4.1°C 76% 1.4 mph S2.3 kmh S 3.8 mph6.1 kmh 30.08 in1018.6 mb 0.00 in0.0 mm 0.00 in0.0 mm 0.05 in1.3 mm
11:35 AM 46.6°F8.1°C 38.4°F3.6°C 73% 1.3 mph SSW2.1 kmh SSW 3.1 mph5.0 kmh 30.08 in1018.6 mb 0.00 in0.0 mm 0.00 in0.0 mm 0.05 in1.3 mm
11:40 AM 46.6°F8.1°C 37.5°F3.1°C 70% 2.1 mph S3.4 kmh S 3.8 mph6.1 kmh 30.08 in1018.6 mb 0.00 in0.0 mm 0.00 in0.0 mm 0.05 in1.3 mm
11:45 AM 46.6°F8.1°C 37.3°F2.9°C 70% 2.1 mph SW3.4 kmh SW 4.5 mph7.2 kmh 30.07 in1018.3 mb 0.00 in0.0 mm 0.00 in0.0 mm 0.05 in1.3 mm
11:50 AM 46.6°F8.1°C 37.0°F2.8°C 69% 3.5 mph SW5.6 kmh SW 4.5 mph7.2 kmh 30.07 in1018.3 mb 0.00 in0.0 mm 0.00 in0.0 mm 0.05 in1.3 mm
11:55 AM 46.6°F8.1°C 37.0°F2.8°C 69% 2.8 mph SW4.5 kmh SW 3.8 mph6.1 kmh 30.08 in1018.6 mb 0.00 in0.0 mm 0.00 in0.0 mm 0.05 in1.3 mm
12:00 PM 46.4°F8.0°C 36.8°F2.7°C 69% 2.6 mph SW4.2 kmh SW 4.5 mph7.2 kmh 30.08 in1018.6 mb 0.00 in0.0 mm 0.00 in0.0 mm 0.05 in1.3 mm
12:05 PM 46.6°F8.1°C 37.0°F2.8°C 69% 2.4 mph S3.9 kmh S 3.8 mph6.1 kmh 30.07 in1018.3 mb 0.00 in0.0 mm 0.00 in0.0 mm 0.05 in1.3 mm
12:10 PM 46.8°F8.2°C 36.9°F2.7°C 68% 3.1 mph SW5.0 kmh SW 6.0 mph9.7 kmh 30.07 in1018.3 mb 0.00 in0.0 mm 0.00 in0.0 mm 0.05 in1.3 mm
12:15 PM 47.0°F8.3°C 37.4°F3.0°C 69% 3.7 mph SW6.0 kmh SW 6.9 mph11.1 kmh 30.07 in1018.3 mb 0.00 in0.0 mm 0.00 in0.0 mm 0.05 in1.3 mm
12:20 PM 47.2°F8.4°C 38.0°F3.3°C 70% 5.2 mph SW8.4 kmh SW 9.2 mph14.8 kmh 30.07 in1018.3 mb 0.00 in0.0 mm 0.00 in0.0 mm 0.05 in1.3 mm
12:25 PM 47.6°F8.7°C 38.3°F3.5°C 70% 4.5 mph SW7.2 kmh SW 6.9 mph11.1 kmh 30.07 in1018.3 mb 0.00 in0.0 mm 0.00 in0.0 mm 0.05 in1.3 mm
12:30 PM 47.8°F8.8°C 38.4°F3.6°C 70% 4.3 mph SW6.9 kmh SW 6.9 mph11.1 kmh 30.07 in1018.3 mb 0.00 in0.0 mm 0.00 in0.0 mm 0.05 in1.3 mm
12:35 PM 47.8°F8.8°C 38.3°F3.5°C 69% 5.1 mph SW8.2 kmh SW 6.9 mph11.1 kmh 30.07 in1018.3 mb 0.00 in0.0 mm 0.00 in0.0 mm 0.05 in1.3 mm
12:40 PM 48.2°F9.0°C 38.8°F3.8°C 70% 5.7 mph S9.2 kmh S 8.3 mph13.4 kmh 30.07 in1018.3 mb 0.00 in0.0 mm 0.00 in0.0 mm 0.05 in1.3 mm
12:45 PM 48.6°F9.2°C 39.2°F4.0°C 70% 4.7 mph S7.6 kmh S 7.6 mph12.2 kmh 30.06 in1017.9 mb 0.00 in0.0 mm 0.00 in0.0 mm 0.05 in1.3 mm
12:50 PM 48.6°F9.2°C 39.0°F3.9°C 69% 6.4 mph S10.3 kmh S 12.1 mph19.5 kmh 30.06 in1017.9 mb 0.00 in0.0 mm 0.00 in0.0 mm 0.05 in1.3 mm
12:55 PM 48.6°F9.2°C 38.6°F3.7°C 68% 5.7 mph SSW9.2 kmh SSW 7.6 mph12.2 kmh 30.06 in1017.9 mb 0.00 in0.0 mm 0.00 in0.0 mm 0.05 in1.3 mm
01:00 PM 48.4°F9.1°C 38.7°F3.7°C 69% 6.3 mph S10.1 kmh S 9.2 mph14.8 kmh 30.06 in1017.9 mb 0.00 in0.0 mm 0.00 in0.0 mm 0.05 in1.3 mm
01:05 PM 48.4°F9.1°C 38.8°F3.8°C 69% 5.8 mph ENE9.3 kmh ENE 9.8 mph15.8 kmh 30.05 in1017.6 mb 0.00 in0.0 mm 0.00 in0.0 mm 0.05 in1.3 mm
01:10 PM 48.3°F9.1°C 38.5°F3.6°C 69% 6.4 mph S10.3 kmh S 10.7 mph17.2 kmh 30.05 in1017.6 mb 0.00 in0.0 mm 0.00 in0.0 mm 0.05 in1.3 mm
01:15 PM 48.2°F9.0°C 38.5°F3.6°C 69% 7.7 mph S12.4 kmh S 11.4 mph18.3 kmh 30.05 in1017.6 mb 0.00 in0.0 mm 0.00 in0.0 mm 0.05 in1.3 mm
01:20 PM 48.2°F9.0°C 38.6°F3.7°C 69% 5.6 mph S9.0 kmh S 9.8 mph15.8 kmh 30.05 in1017.6 mb 0.00 in0.0 mm 0.00 in0.0 mm 0.05 in1.3 mm
01:25 PM 48.1°F8.9°C 38.8°F3.8°C 70% 7.1 mph S11.4 kmh S 11.4 mph18.3 kmh 30.06 in1017.9 mb 0.00 in0.0 mm 0.00 in0.0 mm 0.05 in1.3 mm
01:30 PM 47.9°F8.8°C 38.6°F3.7°C 70% 7.1 mph S11.4 kmh S 9.8 mph15.8 kmh 30.06 in1017.9 mb 0.00 in0.0 mm 0.00 in0.0 mm 0.05 in1.3 mm
01:35 PM 47.7°F8.7°C 38.4°F3.6°C 70% 9.0 mph S14.5 kmh S 14.5 mph23.3 kmh 30.06 in1017.9 mb 0.00 in0.0 mm 0.00 in0.0 mm 0.05 in1.3 mm
01:40 PM 47.4°F8.6°C 38.1°F3.4°C 70% 11.8 mph S19.0 kmh S 15.2 mph24.5 kmh 30.06 in1017.9 mb 0.00 in0.0 mm 0.00 in0.0 mm 0.05 in1.3 mm
01:45 PM 47.0°F8.3°C 37.8°F3.2°C 70% 10.5 mph SSW16.9 kmh SSW 15.2 mph24.5 kmh 30.06 in1017.9 mb 0.00 in0.0 mm 0.00 in0.0 mm 0.05 in1.3 mm
01:50 PM 46.8°F8.2°C 37.7°F3.2°C 70% 8.7 mph S14.0 kmh S 13.0 mph20.9 kmh 30.06 in1017.9 mb 0.00 in0.0 mm 0.00 in0.0 mm 0.05 in1.3 mm
01:55 PM 46.6°F8.1°C 37.8°F3.2°C 71% 8.8 mph S14.2 kmh S 13.0 mph20.9 kmh 30.06 in1017.9 mb 0.00 in0.0 mm 0.00 in0.0 mm 0.05 in1.3 mm
02:00 PM 46.5°F8.1°C 37.6°F3.1°C 71% 11.0 mph S17.7 kmh S 15.2 mph24.5 kmh 30.06 in1017.9 mb 0.00 in0.0 mm 0.00 in0.0 mm 0.05 in1.3 mm
02:05 PM 46.4°F8.0°C 37.5°F3.1°C 71% 12.1 mph SW19.5 kmh SW 14.5 mph23.3 kmh 30.06 in1017.9 mb 0.00 in0.0 mm 0.00 in0.0 mm 0.05 in1.3 mm
02:10 PM 46.2°F7.9°C 37.4°F3.0°C 71% 10.3 mph SSW16.6 kmh SSW 14.5 mph23.3 kmh 30.06 in1017.9 mb 0.00 in0.0 mm 0.00 in0.0 mm 0.05 in1.3 mm
02:15 PM 46.0°F7.8°C 37.2°F2.9°C 71% 8.7 mph SSE14.0 kmh SSE 12.1 mph19.5 kmh 30.07 in1018.3 mb 0.00 in0.0 mm 0.00 in0.0 mm 0.05 in1.3 mm
02:20 PM 46.0°F7.8°C 37.4°F3.0°C 72% 7.0 mph S11.3 kmh S 11.4 mph18.3 kmh 30.06 in1017.9 mb 0.00 in0.0 mm 0.00 in0.0 mm 0.05 in1.3 mm
02:25 PM 45.9°F7.7°C 37.4°F3.0°C 72% 9.1 mph SSE14.6 kmh SSE 12.1 mph19.5 kmh 30.07 in1018.3 mb 0.00 in0.0 mm 0.00 in0.0 mm 0.05 in1.3 mm
02:30 PM 45.9°F7.7°C 37.3°F2.9°C 72% 9.3 mph S15.0 kmh S 13.0 mph20.9 kmh 30.07 in1018.3 mb 0.00 in0.0 mm 0.00 in0.0 mm 0.05 in1.3 mm
02:35 PM 45.7°F7.6°C 38.5°F3.6°C 76% 7.2 mph S11.6 kmh S 10.7 mph17.2 kmh 30.07 in1018.3 mb 0.00 in0.0 mm 0.00 in0.0 mm 0.05 in1.3 mm
02:40 PM 45.7°F7.6°C 38.9°F3.8°C 77% 7.6 mph S12.2 kmh S 9.2 mph14.8 kmh 30.06 in1017.9 mb 0.00 in0.0 mm 0.00 in0.0 mm 0.05 in1.3 mm
02:45 PM 45.6°F7.6°C 39.1°F3.9°C 78% 9.1 mph S14.6 kmh S 13.0 mph20.9 kmh 30.07 in1018.3 mb 0.00 in0.0 mm 0.00 in0.0 mm 0.05 in1.3 mm
02:50 PM 45.5°F7.5°C 39.0°F3.9°C 78% 8.1 mph S13.0 kmh S 9.8 mph15.8 kmh 30.07 in1018.3 mb 0.00 in0.0 mm 0.00 in0.0 mm 0.05 in1.3 mm
02:55 PM 45.4°F7.4°C 38.9°F3.8°C 78% 8.0 mph S12.9 kmh S 10.7 mph17.2 kmh 30.06 in1017.9 mb 0.00 in0.0 mm 0.00 in0.0 mm 0.05 in1.3 mm
03:00 PM 45.3°F7.4°C 38.9°F3.8°C 78% 7.4 mph SSE11.9 kmh SSE 10.7 mph17.2 kmh 30.06 in1017.9 mb 0.00 in0.0 mm 0.00 in0.0 mm 0.05 in1.3 mm
03:05 PM 45.2°F7.3°C 38.7°F3.7°C 78% 8.0 mph SSE12.9 kmh SSE 10.7 mph17.2 kmh 30.06 in1017.9 mb 0.00 in0.0 mm 0.00 in0.0 mm 0.05 in1.3 mm
03:10 PM 45.1°F7.3°C 38.9°F3.8°C 78% 6.2 mph SSE10.0 kmh SSE 9.8 mph15.8 kmh 30.06 in1017.9 mb 0.00 in0.0 mm 0.00 in0.0 mm 0.05 in1.3 mm
03:15 PM 45.1°F7.3°C 39.0°F3.9°C 79% 5.8 mph S9.3 kmh S 9.8 mph15.8 kmh 30.06 in1017.9 mb 0.00 in0.0 mm 0.00 in0.0 mm 0.05 in1.3 mm
03:20 PM 45.1°F7.3°C 39.0°F3.9°C 79% 7.2 mph SSE11.6 kmh SSE 12.1 mph19.5 kmh 30.06 in1017.9 mb 0.00 in0.0 mm 0.00 in0.0 mm 0.05 in1.3 mm
03:25 PM 45.1°F7.3°C 39.0°F3.9°C 79% 7.5 mph SE12.1 kmh SE 12.1 mph19.5 kmh 30.06 in1017.9 mb 0.00 in0.0 mm 0.00 in0.0 mm 0.05 in1.3 mm
03:30 PM 45.1°F7.3°C 39.0°F3.9°C 79% 4.2 mph S6.8 kmh S 6.9 mph11.1 kmh 30.06 in1017.9 mb 0.00 in0.0 mm 0.00 in0.0 mm 0.05 in1.3 mm
03:35 PM 45.1°F7.3°C 39.3°F4.1°C 80% 6.8 mph S10.9 kmh S 10.7 mph17.2 kmh 30.06 in1017.9 mb 0.00 in0.0 mm 0.00 in0.0 mm 0.05 in1.3 mm
03:40 PM 45.1°F7.3°C 39.3°F4.1°C 80% 8.3 mph SSW13.4 kmh SSW 15.9 mph25.6 kmh 30.06 in1017.9 mb 0.00 in0.0 mm 0.00 in0.0 mm 0.05 in1.3 mm
03:45 PM 45.0°F7.2°C 39.2°F4.0°C 80% 8.4 mph SSE13.5 kmh SSE 12.1 mph19.5 kmh 30.06 in1017.9 mb 0.00 in0.0 mm 0.00 in0.0 mm 0.05 in1.3 mm
03:50 PM 44.9°F7.2°C 39.1°F3.9°C 80% 9.2 mph S14.8 kmh S 13.0 mph20.9 kmh 30.06 in1017.9 mb 0.00 in0.0 mm 0.00 in0.0 mm 0.05 in1.3 mm
03:55 PM 44.8°F7.1°C 39.0°F3.9°C 80% 6.8 mph SSE10.9 kmh SSE 10.7 mph17.2 kmh 30.06 in1017.9 mb 0.00 in0.0 mm 0.00 in0.0 mm 0.05 in1.3 mm
04:00 PM 44.7°F7.1°C 38.9°F3.8°C 80% 8.1 mph S13.0 kmh S 12.1 mph19.5 kmh 30.07 in1018.3 mb 0.00 in0.0 mm 0.00 in0.0 mm 0.05 in1.3 mm
04:05 PM 44.6°F7.0°C 38.8°F3.8°C 80% 6.9 mph S11.1 kmh S 7.6 mph12.2 kmh 30.06 in1017.9 mb 0.00 in0.0 mm 0.00 in0.0 mm 0.05 in1.3 mm
04:10 PM 44.6°F7.0°C 39.0°F3.9°C 81% 6.5 mph SSE10.5 kmh SSE 10.7 mph17.2 kmh 30.07 in1018.3 mb 0.00 in0.0 mm 0.00 in0.0 mm 0.05 in1.3 mm
04:15 PM 44.4°F6.9°C 39.0°F3.9°C 81% 6.7 mph S10.8 kmh S 9.2 mph14.8 kmh 30.07 in1018.3 mb 0.00 in0.0 mm 0.00 in0.0 mm 0.05 in1.3 mm
04:20 PM 44.4°F6.9°C 39.0°F3.9°C 81% 6.8 mph S10.9 kmh S 9.2 mph14.8 kmh 30.07 in1018.3 mb 0.00 in0.0 mm 0.00 in0.0 mm 0.05 in1.3 mm
04:25 PM 44.4°F6.9°C 39.0°F3.9°C 81% 5.3 mph S8.5 kmh S 8.3 mph13.4 kmh 30.07 in1018.3 mb 0.00 in0.0 mm 0.00 in0.0 mm 0.05 in1.3 mm
04:30 PM 44.4°F6.9°C 39.0°F3.9°C 81% 6.8 mph S10.9 kmh S 10.7 mph17.2 kmh 30.07 in1018.3 mb 0.00 in0.0 mm 0.00 in0.0 mm 0.05 in1.3 mm
04:35 PM 44.3°F6.8°C 38.9°F3.8°C 81% 8.1 mph S13.0 kmh S 13.6 mph21.9 kmh 30.07 in1018.3 mb 0.00 in0.0 mm 0.00 in0.0 mm 0.05 in1.3 mm
04:40 PM 44.2°F6.8°C 38.7°F3.7°C 81% 9.9 mph S15.9 kmh S 15.9 mph25.6 kmh 30.07 in1018.3 mb 0.00 in0.0 mm 0.00 in0.0 mm 0.05 in1.3 mm
04:45 PM 44.2°F6.8°C 38.5°F3.6°C 80% 10.4 mph S16.7 kmh S 15.9 mph25.6 kmh 30.07 in1018.3 mb 0.00 in0.0 mm 0.00 in0.0 mm 0.05 in1.3 mm
04:50 PM 44.2°F6.8°C 38.4°F3.6°C 80% 9.0 mph S14.5 kmh S 15.9 mph25.6 kmh 30.07 in1018.3 mb 0.00 in0.0 mm 0.00 in0.0 mm 0.05 in1.3 mm
04:55 PM 44.1°F6.7°C 38.4°F3.6°C 80% 5.8 mph S9.3 kmh S 11.4 mph18.3 kmh 30.07 in1018.3 mb 0.00 in0.0 mm 0.00 in0.0 mm 0.05 in1.3 mm
05:00 PM 44.1°F6.7°C 38.3°F3.5°C 80% 7.8 mph SSE12.6 kmh SSE 10.7 mph17.2 kmh 30.07 in1018.3 mb 0.00 in0.0 mm 0.00 in0.0 mm 0.05 in1.3 mm
05:05 PM 44.1°F6.7°C 38.3°F3.5°C 80% 6.1 mph SE9.8 kmh SE 9.8 mph15.8 kmh 30.06 in1017.9 mb 0.00 in0.0 mm 0.00 in0.0 mm 0.05 in1.3 mm
05:10 PM 44.1°F6.7°C 38.3°F3.5°C 80% 8.2 mph SE13.2 kmh SE 10.7 mph17.2 kmh 30.06 in1017.9 mb 0.00 in0.0 mm 0.00 in0.0 mm 0.05 in1.3 mm
05:15 PM 44.0°F6.7°C 38.3°F3.5°C 80% 6.7 mph SE10.8 kmh SE 12.1 mph19.5 kmh 30.06 in1017.9 mb 0.00 in0.0 mm 0.00 in0.0 mm 0.05 in1.3 mm
05:20 PM 43.9°F6.6°C 38.1°F3.4°C 80% 8.0 mph S12.9 kmh S 11.4 mph18.3 kmh 30.06 in1017.9 mb 0.00 in0.0 mm 0.00 in0.0 mm 0.05 in1.3 mm
05:25 PM 43.9°F6.6°C 38.1°F3.4°C 80% 6.0 mph S9.7 kmh S 9.2 mph14.8 kmh 30.06 in1017.9 mb 0.00 in0.0 mm 0.00 in0.0 mm 0.05 in1.3 mm
05:30 PM 43.9°F6.6°C 38.1°F3.4°C 80% 8.0 mph SSE12.9 kmh SSE 13.0 mph20.9 kmh 30.06 in1017.9 mb 0.00 in0.0 mm 0.00 in0.0 mm 0.05 in1.3 mm
05:35 PM 43.9°F6.6°C 38.1°F3.4°C 80% 6.6 mph SSE10.6 kmh SSE 11.4 mph18.3 kmh 30.06 in1017.9 mb 0.00 in0.0 mm 0.00 in0.0 mm 0.05 in1.3 mm
05:40 PM 43.9°F6.6°C 38.1°F3.4°C 80% 7.0 mph SSE11.3 kmh SSE 10.7 mph17.2 kmh 30.06 in1017.9 mb 0.00 in0.0 mm 0.00 in0.0 mm 0.05 in1.3 mm
05:45 PM 43.9°F6.6°C 38.1°F3.4°C 80% 6.1 mph SSE9.8 kmh SSE 10.7 mph17.2 kmh 30.07 in1018.3 mb 0.00 in0.0 mm 0.00 in0.0 mm 0.05 in1.3 mm
05:50 PM 43.9°F6.6°C 38.1°F3.4°C 80% 5.9 mph SSE9.5 kmh SSE 9.8 mph15.8 kmh 30.07 in1018.3 mb 0.00 in0.0 mm 0.00 in0.0 mm 0.05 in1.3 mm
05:55 PM 43.9°F6.6°C 38.1°F3.4°C 80% 7.3 mph S11.7 kmh S 10.7 mph17.2 kmh 30.06 in1017.9 mb 0.00 in0.0 mm 0.00 in0.0 mm 0.05 in1.3 mm
06:00 PM 43.9°F6.6°C 38.1°F3.4°C 80% 6.7 mph S10.8 kmh S 9.2 mph14.8 kmh 30.06 in1017.9 mb 0.00 in0.0 mm 0.00 in0.0 mm 0.05 in1.3 mm
06:05 PM 43.9°F6.6°C 37.8°F3.2°C 79% 8.3 mph S13.4 kmh S 10.7 mph17.2 kmh 30.06 in1017.9 mb 0.00 in0.0 mm 0.00 in0.0 mm 0.05 in1.3 mm
06:10 PM 43.9°F6.6°C 37.6°F3.1°C 78% 7.9 mph S12.7 kmh S 10.7 mph17.2 kmh 30.06 in1017.9 mb 0.00 in0.0 mm 0.00 in0.0 mm 0.05 in1.3 mm
06:15 PM 43.9°F6.6°C 37.5°F3.1°C 78% 10.2 mph SSE16.4 kmh SSE 14.5 mph23.3 kmh 30.06 in1017.9 mb 0.00 in0.0 mm 0.00 in0.0 mm 0.05 in1.3 mm
06:20 PM 43.9°F6.6°C 37.4°F3.0°C 78% 8.6 mph SSE13.8 kmh SSE 13.0 mph20.9 kmh 30.06 in1017.9 mb 0.00 in0.0 mm 0.00 in0.0 mm 0.05 in1.3 mm
06:25 PM 43.9°F6.6°C 37.1°F2.8°C 77% 7.2 mph SSE11.6 kmh SSE 13.0 mph20.9 kmh 30.06 in1017.9 mb 0.00 in0.0 mm 0.00 in0.0 mm 0.05 in1.3 mm
06:30 PM 43.9°F6.6°C 37.1°F2.8°C 77% 6.6 mph SE10.6 kmh SE 12.1 mph19.5 kmh 30.06 in1017.9 mb 0.00 in0.0 mm 0.00 in0.0 mm 0.05 in1.3 mm
06:35 PM 43.9°F6.6°C 37.1°F2.8°C 77% 10.3 mph SE16.6 kmh SE 13.0 mph20.9 kmh 30.06 in1017.9 mb 0.00 in0.0 mm 0.00 in0.0 mm 0.05 in1.3 mm
06:40 PM 43.9°F6.6°C 36.8°F2.7°C 76% 7.2 mph SE11.6 kmh SE 9.8 mph15.8 kmh 30.06 in1017.9 mb 0.00 in0.0 mm 0.00 in0.0 mm 0.05 in1.3 mm
06:45 PM 43.9°F6.6°C 36.8°F2.7°C 76% 6.6 mph S10.6 kmh S 11.4 mph18.3 kmh 30.06 in1017.9 mb 0.00 in0.0 mm 0.00 in0.0 mm 0.05 in1.3 mm
06:50 PM 43.9°F6.6°C 36.8°F2.7°C 76% 8.1 mph S13.0 kmh S 15.2 mph24.5 kmh 30.06 in1017.9 mb 0.00 in0.0 mm 0.00 in0.0 mm 0.05 in1.3 mm
06:55 PM 43.9°F6.6°C 36.8°F2.7°C 76% 10.1 mph SSE16.3 kmh SSE 20.6 mph33.2 kmh 30.06 in1017.9 mb 0.00 in0.0 mm 0.00 in0.0 mm 0.05 in1.3 mm
07:00 PM 43.9°F6.6°C 36.5°F2.5°C 75% 10.4 mph S16.7 kmh S 15.9 mph25.6 kmh 30.06 in1017.9 mb 0.00 in0.0 mm 0.00 in0.0 mm 0.05 in1.3 mm
07:05 PM 43.9°F6.6°C 36.5°F2.5°C 75% 7.4 mph S11.9 kmh S 13.6 mph21.9 kmh 30.06 in1017.9 mb 0.00 in0.0 mm 0.00 in0.0 mm 0.05 in1.3 mm
07:10 PM 43.9°F6.6°C 36.5°F2.5°C 75% 8.3 mph SW13.4 kmh SW 12.1 mph19.5 kmh 30.06 in1017.9 mb 0.00 in0.0 mm 0.00 in0.0 mm 0.05 in1.3 mm
07:15 PM 43.9°F6.6°C 36.4°F2.4°C 75% 10.1 mph S16.3 kmh S 15.2 mph24.5 kmh 30.06 in1017.9 mb 0.00 in0.0 mm 0.00 in0.0 mm 0.05 in1.3 mm
07:20 PM 43.9°F6.6°C 36.2°F2.3°C 74% 9.2 mph S14.8 kmh S 14.5 mph23.3 kmh 30.07 in1018.3 mb 0.00 in0.0 mm 0.00 in0.0 mm 0.05 in1.3 mm
07:25 PM 43.9°F6.6°C 36.5°F2.5°C 75% 7.9 mph S12.7 kmh S 16.8 mph27.0 kmh 30.07 in1018.3 mb 0.00 in0.0 mm 0.00 in0.0 mm 0.05 in1.3 mm
07:30 PM 43.9°F6.6°C 36.5°F2.5°C 75% 6.4 mph SSE10.3 kmh SSE 11.4 mph18.3 kmh 30.07 in1018.3 mb 0.00 in0.0 mm 0.00 in0.0 mm 0.05 in1.3 mm
07:35 PM 43.7°F6.5°C 36.4°F2.4°C 75% 9.1 mph SSE14.6 kmh SSE 14.5 mph23.3 kmh 30.07 in1018.3 mb 0.00 in0.0 mm 0.00 in0.0 mm 0.05 in1.3 mm
07:40 PM 43.7°F6.5°C 36.6°F2.6°C 76% 8.4 mph S13.5 kmh S 15.2 mph24.5 kmh 30.07 in1018.3 mb 0.00 in0.0 mm 0.00 in0.0 mm 0.05 in1.3 mm
07:45 PM 43.7°F6.5°C 36.8°F2.7°C 77% 9.9 mph SSW15.9 kmh SSW 15.2 mph24.5 kmh 30.07 in1018.3 mb 0.00 in0.0 mm 0.00 in0.0 mm 0.05 in1.3 mm
07:50 PM 43.7°F6.5°C 37.2°F2.9°C 78% 9.5 mph S15.3 kmh S 15.2 mph24.5 kmh 30.07 in1018.3 mb 0.00 in0.0 mm 0.00 in0.0 mm 0.05 in1.3 mm
07:55 PM 43.7°F6.5°C 37.3°F2.9°C 78% 10.4 mph S16.7 kmh S 15.9 mph25.6 kmh 30.08 in1018.6 mb 0.00 in0.0 mm 0.00 in0.0 mm 0.05 in1.3 mm
08:00 PM 43.9°F6.6°C 37.8°F3.2°C 79% 9.6 mph S15.4 kmh S 14.5 mph23.3 kmh 30.08 in1018.6 mb 0.00 in0.0 mm 0.00 in0.0 mm 0.05 in1.3 mm
08:05 PM 43.7°F6.5°C 37.6°F3.1°C 79% 6.9 mph SSE11.1 kmh SSE 9.2 mph14.8 kmh 30.07 in1018.3 mb 0.00 in0.0 mm 0.00 in0.0 mm 0.05 in1.3 mm
08:10 PM 43.7°F6.5°C 37.6°F3.1°C 79% 8.2 mph S13.2 kmh S 13.6 mph21.9 kmh 30.07 in1018.3 mb 0.00 in0.0 mm 0.00 in0.0 mm 0.05 in1.3 mm
08:15 PM 43.7°F6.5°C 37.6°F3.1°C 79% 9.3 mph S15.0 kmh S 15.9 mph25.6 kmh 30.07 in1018.3 mb 0.00 in0.0 mm 0.00 in0.0 mm 0.05 in1.3 mm
08:20 PM 43.7°F6.5°C 37.8°F3.2°C 80% 7.8 mph SSW12.6 kmh SSW 13.0 mph20.9 kmh 30.07 in1018.3 mb 0.00 in0.0 mm 0.00 in0.0 mm 0.05 in1.3 mm
08:25 PM 43.7°F6.5°C 37.6°F3.1°C 79% 6.7 mph SSW10.8 kmh SSW 9.8 mph15.8 kmh 30.07 in1018.3 mb 0.00 in0.0 mm 0.00 in0.0 mm 0.05 in1.3 mm
08:30 PM 43.7°F6.5°C 37.6°F3.1°C 79% 7.6 mph SSE12.2 kmh SSE 11.4 mph18.3 kmh 30.07 in1018.3 mb 0.00 in0.0 mm 0.00 in0.0 mm 0.05 in1.3 mm
08:35 PM 43.7°F6.5°C 37.9°F3.3°C 80% 9.9 mph SSE15.9 kmh SSE 15.2 mph24.5 kmh 30.07 in1018.3 mb 0.00 in0.0 mm 0.00 in0.0 mm 0.05 in1.3 mm
08:40 PM 43.7°F6.5°C 37.9°F3.3°C 80% 8.2 mph S13.2 kmh S 10.7 mph17.2 kmh 30.07 in1018.3 mb 0.00 in0.0 mm 0.00 in0.0 mm 0.05 in1.3 mm
08:45 PM 43.7°F6.5°C 37.9°F3.3°C 80% 9.0 mph S14.5 kmh S 16.8 mph27.0 kmh 30.07 in1018.3 mb 0.00 in0.0 mm 0.00 in0.0 mm 0.05 in1.3 mm
08:50 PM 43.7°F6.5°C 37.9°F3.3°C 80% 13.2 mph S21.2 kmh S 16.8 mph27.0 kmh 30.07 in1018.3 mb 0.00 in0.0 mm 0.00 in0.0 mm 0.05 in1.3 mm
08:55 PM 43.7°F6.5°C 37.9°F3.3°C 80% 7.4 mph SSE11.9 kmh SSE 10.7 mph17.2 kmh 30.07 in1018.3 mb 0.00 in0.0 mm 0.00 in0.0 mm 0.05 in1.3 mm
09:00 PM 43.7°F6.5°C 37.9°F3.3°C 80% 9.4 mph S15.1 kmh S 13.6 mph21.9 kmh 30.08 in1018.6 mb 0.00 in0.0 mm 0.00 in0.0 mm 0.05 in1.3 mm
09:05 PM 43.7°F6.5°C 37.9°F3.3°C 80% 6.9 mph S11.1 kmh S 10.7 mph17.2 kmh 30.07 in1018.3 mb 0.00 in0.0 mm 0.00 in0.0 mm 0.05 in1.3 mm
09:10 PM 43.6°F6.4°C 37.9°F3.3°C 80% 5.0 mph SSW8.0 kmh SSW 8.3 mph13.4 kmh 30.07 in1018.3 mb 0.00 in0.0 mm 0.00 in0.0 mm 0.05 in1.3 mm
09:15 PM 43.5°F6.4°C 37.8°F3.2°C 80% 7.4 mph S11.9 kmh S 11.4 mph18.3 kmh 30.08 in1018.6 mb 0.00 in0.0 mm 0.00 in0.0 mm 0.05 in1.3 mm
09:20 PM 43.5°F6.4°C 37.8°F3.2°C 80% 6.6 mph S10.6 kmh S 11.4 mph18.3 kmh 30.07 in1018.3 mb 0.00 in0.0 mm 0.00 in0.0 mm 0.05 in1.3 mm
09:25 PM 43.4°F6.3°C 37.7°F3.2°C 80% 5.2 mph SSE8.4 kmh SSE 10.7 mph17.2 kmh 30.07 in1018.3 mb 0.00 in0.0 mm 0.00 in0.0 mm 0.05 in1.3 mm
09:30 PM 43.3°F6.3°C 37.6°F3.1°C 80% 5.7 mph S9.2 kmh S 9.8 mph15.8 kmh 30.07 in1018.3 mb 0.00 in0.0 mm 0.00 in0.0 mm 0.05 in1.3 mm
09:35 PM 43.4°F6.3°C 37.6°F3.1°C 80% 9.2 mph SSE14.8 kmh SSE 13.0 mph20.9 kmh 30.07 in1018.3 mb 0.00 in0.0 mm 0.00 in0.0 mm 0.05 in1.3 mm
09:40 PM 43.5°F6.4°C 37.7°F3.2°C 80% 8.0 mph S12.9 kmh S 11.4 mph18.3 kmh 30.07 in1018.3 mb 0.00 in0.0 mm 0.00 in0.0 mm 0.05 in1.3 mm
09:45 PM 43.5°F6.4°C 37.8°F3.2°C 80% 7.6 mph S12.2 kmh S 11.4 mph18.3 kmh 30.07 in1018.3 mb 0.00 in0.0 mm 0.00 in0.0 mm 0.05 in1.3 mm
09:50 PM 43.5°F6.4°C 37.8°F3.2°C 80% 6.8 mph SSW10.9 kmh SSW 9.2 mph14.8 kmh 30.08 in1018.6 mb 0.00 in0.0 mm 0.00 in0.0 mm 0.05 in1.3 mm
09:55 PM 43.7°F6.5°C 37.9°F3.3°C 80% 7.4 mph S11.9 kmh S 11.4 mph18.3 kmh 30.08 in1018.6 mb 0.00 in0.0 mm 0.00 in0.0 mm 0.05 in1.3 mm
10:00 PM 43.7°F6.5°C 37.9°F3.3°C 80% 4.2 mph SSW6.8 kmh SSW 6.9 mph11.1 kmh 30.08 in1018.6 mb 0.00 in0.0 mm 0.00 in0.0 mm 0.05 in1.3 mm
10:05 PM 43.7°F6.5°C 37.9°F3.3°C 80% 7.6 mph SW12.2 kmh SW 9.8 mph15.8 kmh 30.07 in1018.3 mb 0.00 in0.0 mm 0.00 in0.0 mm 0.05 in1.3 mm
10:10 PM 43.6°F6.4°C 37.9°F3.3°C 80% 4.9 mph SW7.9 kmh SW 9.8 mph15.8 kmh 30.07 in1018.3 mb 0.00 in0.0 mm 0.00 in0.0 mm 0.05 in1.3 mm
10:15 PM 43.5°F6.4°C 37.7°F3.2°C 80% 1.7 mph SE2.7 kmh SE 3.8 mph6.1 kmh 30.07 in1018.3 mb 0.00 in0.0 mm 0.00 in0.0 mm 0.05 in1.3 mm
10:20 PM 43.2°F6.2°C 37.5°F3.1°C 80% 3.2 mph SSE5.1 kmh SSE 6.0 mph9.7 kmh 30.07 in1018.3 mb 0.00 in0.0 mm 0.00 in0.0 mm 0.05 in1.3 mm
10:25 PM 43.0°F6.1°C 37.3°F2.9°C 80% 2.7 mph NE4.3 kmh NE 5.4 mph8.7 kmh 30.06 in1017.9 mb 0.00 in0.0 mm 0.00 in0.0 mm 0.05 in1.3 mm
10:30 PM 42.6°F5.9°C 36.9°F2.7°C 80% 4.3 mph NNE6.9 kmh NNE 6.0 mph9.7 kmh 30.06 in1017.9 mb 0.00 in0.0 mm 0.00 in0.0 mm 0.05 in1.3 mm
10:35 PM 42.1°F5.6°C 36.4°F2.4°C 80% 4.4 mph N7.1 kmh N 6.0 mph9.7 kmh 30.06 in1017.9 mb 0.00 in0.0 mm 0.00 in0.0 mm 0.05 in1.3 mm
10:40 PM 41.6°F5.3°C 35.9°F2.2°C 80% 4.6 mph NNE7.4 kmh NNE 6.0 mph9.7 kmh 30.05 in1017.6 mb 0.00 in0.0 mm 0.00 in0.0 mm 0.05 in1.3 mm
10:45 PM 41.3°F5.2°C 35.6°F2.0°C 80% 3.3 mph N5.3 kmh N 4.5 mph7.2 kmh 30.05 in1017.6 mb 0.00 in0.0 mm 0.00 in0.0 mm 0.05 in1.3 mm
10:50 PM 41.1°F5.1°C 35.4°F1.9°C 80% 1.0 mph NW1.6 kmh NW 2.2 mph3.5 kmh 30.06 in1017.9 mb 0.00 in0.0 mm 0.00 in0.0 mm 0.05 in1.3 mm
10:55 PM 40.9°F4.9°C 35.2°F1.8°C 80% 0.3 mph W0.5 kmh W 1.6 mph2.6 kmh 30.06 in1017.9 mb 0.00 in0.0 mm 0.00 in0.0 mm 0.05 in1.3 mm
11:00 PM 40.6°F4.8°C 35.1°F1.7°C 80% 1.4 mph NE2.3 kmh NE 3.1 mph5.0 kmh 30.06 in1017.9 mb 0.00 in0.0 mm 0.00 in0.0 mm 0.05 in1.3 mm
11:05 PM 40.5°F4.7°C 35.1°F1.7°C 81% 0.5 mph NE0.8 kmh NE 1.6 mph2.6 kmh 30.07 in1018.3 mb 0.00 in0.0 mm 0.00 in0.0 mm 0.05 in1.3 mm
11:10 PM 40.2°F4.6°C 34.9°F1.6°C 81% 0.4 mph NW0.6 kmh NW 1.6 mph2.6 kmh 30.07 in1018.3 mb 0.00 in0.0 mm 0.00 in0.0 mm 0.05 in1.3 mm
11:15 PM 40.0°F4.4°C 34.7°F1.5°C 81% 0.5 mph NE0.8 kmh NE 2.2 mph3.5 kmh 30.06 in1017.9 mb 0.00 in0.0 mm 0.00 in0.0 mm 0.05 in1.3 mm
11:20 PM 39.8°F4.3°C 34.5°F1.4°C 81% 1.5 mph N2.4 kmh N 2.2 mph3.5 kmh 30.06 in1017.9 mb 0.00 in0.0 mm 0.00 in0.0 mm 0.05 in1.3 mm
11:25 PM 39.6°F4.2°C 34.3°F1.3°C 81% 1.3 mph NE2.1 kmh NE 3.1 mph5.0 kmh 30.06 in1017.9 mb 0.00 in0.0 mm 0.00 in0.0 mm 0.05 in1.3 mm
11:30 PM 39.4°F4.1°C 34.0°F1.1°C 81% 2.4 mph NE3.9 kmh NE 3.1 mph5.0 kmh 30.06 in1017.9 mb 0.00 in0.0 mm 0.00 in0.0 mm 0.05 in1.3 mm
11:35 PM 39.1°F3.9°C 33.8°F1.0°C 81% 2.4 mph NNW3.9 kmh NNW 3.8 mph6.1 kmh 30.05 in1017.6 mb 0.00 in0.0 mm 0.00 in0.0 mm 0.05 in1.3 mm
11:40 PM 38.8°F3.8°C 33.5°F0.8°C 81% 2.3 mph NW3.7 kmh NW 3.1 mph5.0 kmh 30.05 in1017.6 mb 0.00 in0.0 mm 0.00 in0.0 mm 0.05 in1.3 mm
11:45 PM 38.6°F3.7°C 33.3°F0.7°C 81% 0.6 mph ESE1.0 kmh ESE 1.6 mph2.6 kmh 30.06 in1017.9 mb 0.00 in0.0 mm 0.00 in0.0 mm 0.05 in1.3 mm
11:50 PM 38.4°F3.6°C 33.0°F0.6°C 81% 0.7 mph NE1.1 kmh NE 2.2 mph3.5 kmh 30.06 in1017.9 mb 0.00 in0.0 mm 0.00 in0.0 mm 0.05 in1.3 mm
11:55 PM 38.2°F3.4°C 32.9°F0.5°C 81% 2.4 mph NE3.9 kmh NE 3.8 mph6.1 kmh 30.06 in1017.9 mb 0.00 in0.0 mm 0.00 in0.0 mm 0.05 in1.3 mm